Airfield :
LOGIN :

Register | Disclaimer

   EN    FR    IT 

 










Legend :    VFR   Marginal VFR   IFR   Intensive IFR   Very Intensive IFR
Visi :
Ceiling :
>= 8 km
>= 3000ft
5 to 8 km
1000 to 3000 ft
1500m to 5 km
500 to 1000 ft
800 to 1500m
200 to 500 ft
< 800m
< 200 ft
Symbols :   Thunderstorms  Fog  Heavy snow  Heavy precipitations  Wind > 20 kt
SIGMETs :     Misc.  Thunderstorms  Icing  Turbulence  Mountain Waves  Volcanic Ashes






- Airport Elevation : 9 ft
- IATA code : MIR


DTMB - Habib Bourguliba Int. Monastir

CURRENT METAR :
  • 040400Z 32008KT CAVOK 25/16 Q1015

EXPIRED METARs :
  • 040330Z 32014KT CAVOK 25/18 Q1015
  • 040300Z 34016KT CAVOK 25/18 Q1015
  • 040230Z 34015KT CAVOK 26/18 Q1015
  • 040200Z 33013KT CAVOK 26/19 Q1015
  • 040130Z 34019KT CAVOK 26/19 Q1014

TAF TAF DTMB
Valid from the 04 at 00:00 until the 05 at 00:00 UTC


032300Z 0400/0424 35011KT CAVOK
BECMG 0400/0402 34015G30KT



MET'MAP, your aeronautical weather chart ! - Copyright ORBIFLY December 2007 - Disclaimer

ORBIFLY MET'MAP TEAM :

Programming & Development : Alexandra Zaïnal
Concept & original design : Baudouin d'Aumeries
Assistance for programming : Marc-Olivier Méhu
Technical & hardware support : Manuel Goepfert

Contact : metmap@orbifly.com




SOURCES & CREDITS :

   NOAA